createdAt,value
2023-03-07T00:01:53.488Z,102.80
2023-03-07T00:04:58.161Z,77.82
2023-03-07T00:08:02.433Z,119.88
2023-03-07T00:11:09.405Z,46.38
2023-03-07T00:14:13.625Z,76.65
2023-03-07T00:17:18.450Z,47.78
2023-03-07T00:20:23.004Z,33.13
2023-03-07T00:23:27.605Z,45.92
2023-03-07T00:26:32.371Z,58.45
2023-03-07T00:29:36.833Z,79.95
2023-03-07T00:32:41.317Z,67.35
2023-03-07T00:35:45.627Z,50.33
2023-03-07T00:38:50.907Z,92.45
2023-03-07T00:41:55.441Z,69.00
2023-03-07T00:44:59.677Z,54.30
2023-03-07T00:48:04.358Z,48.08
2023-03-07T00:51:12.058Z,59.00
2023-03-07T00:54:17.126Z,61.60
2023-03-07T00:57:21.424Z,50.70
2023-03-07T01:00:25.810Z,59.47
2023-03-07T01:03:31.082Z,70.80
2023-03-07T01:06:36.697Z,71.70
2023-03-07T01:12:48.425Z,69.57
2023-03-07T01:15:52.833Z,64.20
2023-03-07T01:19:00.387Z,58.58
2023-03-07T01:22:08.371Z,76.45
2023-03-07T01:25:13.930Z,70.60
2023-03-07T01:28:18.165Z,66.60
2023-03-07T01:31:23.019Z,61.92
2023-03-07T01:34:27.477Z,66.57
2023-03-07T01:37:31.871Z,62.93
2023-03-07T01:40:36.233Z,65.82
2023-03-07T01:43:41.001Z,61.85
2023-03-07T01:46:56.668Z,54.90
2023-03-07T01:50:21.117Z,45.90
2023-03-07T01:53:25.009Z,38.57
2023-03-07T01:56:29.867Z,36.58
2023-03-07T01:59:38.085Z,41.90
2023-03-07T02:02:45.752Z,38.80
2023-03-07T02:05:59.808Z,36.22
2023-03-07T02:09:04.993Z,34.67
2023-03-07T02:12:10.085Z,28.90
2023-03-07T02:15:16.152Z,33.13
2023-03-07T02:18:25.197Z,31.27
2023-03-07T02:21:47.315Z,27.20
2023-03-07T02:24:54.909Z,27.13
2023-03-07T02:28:00.462Z,18.05
2023-03-07T02:31:08.522Z,21.02
2023-03-07T02:34:29.822Z,19.05
2023-03-07T02:37:48.696Z,17.38
2023-03-07T02:40:56.675Z,19.70
2023-03-07T02:44:01.243Z,16.98
2023-03-07T02:47:09.777Z,15.37
2023-03-07T02:50:16.253Z,18.08
2023-03-07T02:53:23.317Z,16.30
2023-03-07T02:56:27.236Z,14.73
2023-03-07T02:59:31.897Z,11.88
2023-03-07T03:02:36.424Z,10.35
2023-03-07T03:05:40.548Z,12.07
2023-03-07T03:08:45.071Z,18.73
2023-03-07T03:11:49.427Z,28.52
2023-03-07T03:14:57.141Z,22.92
2023-03-07T03:18:01.808Z,79.82
2023-03-07T03:21:12.077Z,12.95
2023-03-07T03:24:16.775Z,13.65
2023-03-07T03:27:23.167Z,7.95
2023-03-07T03:30:33.133Z,8.65
2023-03-07T03:33:40.042Z,9.38
2023-03-07T03:36:44.654Z,10.82
2023-03-07T03:39:48.765Z,8.27
2023-03-07T03:42:53.039Z,11.43
2023-03-07T03:45:59.817Z,9.30
2023-03-07T03:49:06.200Z,9.30
2023-03-07T03:52:11.514Z,8.63
2023-03-07T03:55:16.439Z,8.40
2023-03-07T03:58:20.927Z,6.88
2023-03-07T04:01:27.954Z,5.70
2023-03-07T04:04:35.589Z,6.25
2023-03-07T04:07:40.479Z,8.13
2023-03-07T04:10:45.299Z,8.93
2023-03-07T04:13:50.213Z,6.10
2023-03-07T04:16:54.964Z,13.75
2023-03-07T04:19:59.404Z,16.23
2023-03-07T04:23:04.113Z,11.95
2023-03-07T04:26:10.338Z,19.48
2023-03-07T04:29:15.610Z,6.72
2023-03-07T04:32:27.973Z,8.95
2023-03-07T04:35:32.767Z,10.40
2023-03-07T04:38:39.785Z,13.45
2023-03-07T04:41:43.753Z,9.05
2023-03-07T04:44:59.438Z,11.40
2023-03-07T04:48:04.303Z,7.85
2023-03-07T04:51:10.624Z,8.32
2023-03-07T04:54:15.108Z,10.80
2023-03-07T04:57:21.828Z,11.68
2023-03-07T05:00:26.250Z,16.33
2023-03-07T05:03:31.539Z,12.98
2023-03-07T05:09:40.791Z,15.27
2023-03-07T05:12:45.393Z,19.27
2023-03-07T05:15:58.160Z,5.43
2023-03-07T05:19:05.932Z,9.23
2023-03-07T05:22:10.535Z,14.40
2023-03-07T05:25:15.442Z,19.65
2023-03-07T05:31:25.307Z,9.95
2023-03-07T05:34:29.732Z,6.53
2023-03-07T05:37:34.769Z,9.02
2023-03-07T05:40:39.787Z,13.75
2023-03-07T05:43:44.813Z,10.18
2023-03-07T05:46:48.937Z,4.95
2023-03-07T05:49:53.458Z,4.53
2023-03-07T05:52:57.890Z,8.10
2023-03-07T05:56:06.414Z,7.55
2023-03-07T05:59:16.311Z,6.68
2023-03-07T06:02:22.346Z,14.73
2023-03-07T06:05:27.029Z,5.07
2023-03-07T06:08:31.514Z,8.27
2023-03-07T06:11:36.315Z,6.78
2023-03-07T06:14:40.820Z,6.65
2023-03-07T06:17:45.359Z,8.95
2023-03-07T06:21:00.567Z,11.65
2023-03-07T06:24:08.721Z,7.10
2023-03-07T06:27:13.588Z,7.03
2023-03-07T06:30:24.287Z,4.85
2023-03-07T06:33:28.827Z,11.88
2023-03-07T06:36:36.664Z,13.63
2023-03-07T06:39:44.392Z,11.82
2023-03-07T06:42:49.316Z,10.23
2023-03-07T06:46:01.618Z,11.15
2023-03-07T06:49:11.398Z,16.23
2023-03-07T06:52:19.143Z,12.73
2023-03-07T06:55:25.796Z,22.73
2023-03-07T06:58:33.425Z,19.23
2023-03-07T07:01:41.505Z,21.00
2023-03-07T07:04:47.756Z,17.35
2023-03-07T07:07:52.944Z,22.05
2023-03-07T07:11:00.359Z,16.55
2023-03-07T07:14:08.919Z,21.83
2023-03-07T07:17:21.150Z,14.07
2023-03-07T07:20:29.393Z,20.85
2023-03-07T07:23:41.376Z,15.20
2023-03-07T07:26:46.514Z,22.77
2023-03-07T07:29:51.212Z,14.02
2023-03-07T07:32:56.153Z,19.52
2023-03-07T07:36:03.226Z,19.23
2023-03-07T07:39:08.651Z,28.57
2023-03-07T07:42:15.204Z,34.95
2023-03-07T07:45:36.830Z,48.65
2023-03-07T07:48:43.425Z,28.73
2023-03-07T07:51:48.544Z,22.98
2023-03-07T07:54:53.293Z,20.10
2023-03-07T07:58:00.753Z,19.77
2023-03-07T08:01:23.464Z,29.40
2023-03-07T08:04:27.800Z,23.33
2023-03-07T08:07:34.885Z,27.75
2023-03-07T08:10:44.019Z,25.00
2023-03-07T08:13:51.545Z,21.60
2023-03-07T08:16:55.875Z,21.50
2023-03-07T08:20:09.224Z,19.75
2023-03-07T08:23:15.278Z,18.33
2023-03-07T08:26:22.640Z,18.00
2023-03-07T08:29:30.303Z,18.83
2023-03-07T08:32:37.803Z,31.50
2023-03-07T08:35:42.502Z,47.80
2023-03-07T08:38:53.416Z,37.13
2023-03-07T08:41:57.792Z,34.50
2023-03-07T08:45:02.124Z,46.03
2023-03-07T08:48:07.099Z,55.78
2023-03-07T08:51:15.829Z,56.53
2023-03-07T08:54:20.235Z,50.13
2023-03-07T08:57:26.415Z,78.57
2023-03-07T09:00:30.999Z,70.43
2023-03-07T09:03:36.797Z,62.10
2023-03-07T09:06:42.959Z,84.38
2023-03-07T09:09:48.727Z,87.97
2023-03-07T09:15:57.588Z,54.70
2023-03-07T09:19:02.512Z,43.58
2023-03-07T09:22:06.794Z,26.00
2023-03-07T09:25:12.241Z,23.20
2023-03-07T09:28:16.614Z,17.65
2023-03-07T09:31:21.170Z,25.13
2023-03-07T09:34:25.261Z,38.35
2023-03-07T09:37:29.864Z,14.90
2023-03-07T09:40:34.647Z,31.45
2023-03-07T09:43:52.890Z,22.20
2023-03-07T09:47:26.795Z,22.48
2023-03-07T09:50:53.130Z,16.42
2023-03-07T09:54:21.158Z,15.63
2023-03-07T09:57:55.662Z,18.35
2023-03-07T10:01:02.425Z,13.88
2023-03-07T10:07:44.737Z,26.83
2023-03-07T10:11:14.703Z,23.67
2023-03-07T10:14:42.373Z,28.90
2023-03-07T10:18:05.762Z,25.27
2023-03-07T10:21:50.117Z,25.20
2023-03-07T10:25:24.576Z,45.65
2023-03-07T10:28:33.264Z,52.45
2023-03-07T10:31:43.511Z,38.25
2023-03-07T10:34:52.820Z,52.42
2023-03-07T10:38:25.711Z,43.63
2023-03-07T10:41:30.346Z,20.40
2023-03-07T10:44:37.403Z,20.02
2023-03-07T10:47:44.251Z,21.33
2023-03-07T10:51:25.319Z,23.75
2023-03-07T10:54:38.835Z,25.02
2023-03-07T10:57:44.020Z,25.33
2023-03-07T11:01:08.228Z,30.23
2023-03-07T11:04:25.605Z,26.63
2023-03-07T11:07:36.593Z,16.20
2023-03-07T11:10:41.459Z,20.30
2023-03-07T11:14:16.147Z,17.50
2023-03-07T11:17:42.108Z,23.88
2023-03-07T11:20:56.039Z,33.60
2023-03-07T11:24:05.720Z,27.52
2023-03-07T11:27:25.539Z,11.85
2023-03-07T11:30:42.138Z,13.18
2023-03-07T11:33:59.594Z,14.63
2023-03-07T11:37:30.310Z,13.75
2023-03-07T11:40:44.528Z,19.20
2023-03-07T11:43:54.768Z,14.43
2023-03-07T11:47:34.618Z,15.25
2023-03-07T11:50:45.482Z,12.13
2023-03-07T11:54:32.763Z,17.63
2023-03-07T11:58:18.483Z,13.32
2023-03-07T12:01:44.955Z,17.13
2023-03-07T12:08:39.839Z,12.13
2023-03-07T12:11:50.410Z,13.30
2023-03-07T12:15:03.079Z,15.77
2023-03-07T12:18:20.793Z,31.17
2023-03-07T12:21:56.122Z,20.52
2023-03-07T12:25:09.228Z,16.55
2023-03-07T12:28:51.930Z,11.38
2023-03-07T12:32:01.998Z,16.75
2023-03-07T12:35:49.684Z,18.48
2023-03-07T12:39:05.931Z,14.05
2023-03-07T12:42:36.146Z,21.23
2023-03-07T12:46:20.598Z,22.48
2023-03-07T12:49:49.740Z,18.70
2023-03-07T12:53:23.225Z,27.88
2023-03-07T12:56:37.406Z,22.05
2023-03-07T12:59:44.570Z,36.55
2023-03-07T13:03:00.631Z,46.08
2023-03-07T13:06:05.481Z,20.75
2023-03-07T13:09:14.992Z,19.55
2023-03-07T13:12:22.572Z,32.35
2023-03-07T13:15:28.098Z,35.40
2023-03-07T13:18:33.957Z,39.38
2023-03-07T13:21:37.841Z,22.27
2023-03-07T13:24:42.391Z,16.25
2023-03-07T13:28:07.118Z,15.88
2023-03-07T13:31:27.494Z,16.73
2023-03-07T13:34:48.480Z,19.42
2023-03-07T13:37:54.210Z,26.42
2023-03-07T13:41:03.392Z,38.33
2023-03-07T13:44:29.599Z,12.88
2023-03-07T13:47:46.541Z,15.02
2023-03-07T13:50:50.449Z,14.40
2023-03-07T13:54:14.758Z,11.65
2023-03-07T13:57:21.828Z,15.02
2023-03-07T14:00:33.119Z,15.75
2023-03-07T14:03:41.688Z,11.77
2023-03-07T14:06:52.980Z,11.13
2023-03-07T14:10:19.546Z,10.30
2023-03-07T14:13:37.417Z,29.40
2023-03-07T14:17:19.779Z,12.40
2023-03-07T14:20:32.774Z,13.20
2023-03-07T14:23:48.001Z,17.55
2023-03-07T14:26:57.594Z,12.57
2023-03-07T14:30:01.566Z,43.83
2023-03-07T14:33:07.086Z,19.55
2023-03-07T14:36:27.416Z,10.70
2023-03-07T14:39:57.801Z,10.55
2023-03-07T14:43:41.695Z,12.95
2023-03-07T14:46:54.773Z,10.43
2023-03-07T14:50:19.662Z,9.35
2023-03-07T14:53:27.257Z,10.02
2023-03-07T14:56:33.805Z,9.30
2023-03-07T14:59:37.725Z,10.23
2023-03-07T15:02:55.466Z,5.18
2023-03-07T15:06:01.795Z,11.65
2023-03-07T15:09:11.816Z,11.63
2023-03-07T15:12:23.794Z,11.13
2023-03-07T15:15:36.861Z,7.00
2023-03-07T15:18:52.254Z,5.55
2023-03-07T15:22:00.603Z,11.70
2023-03-07T15:25:05.031Z,8.40
2023-03-07T15:28:22.203Z,11.55
2023-03-07T15:31:31.209Z,8.00
2023-03-07T15:34:38.837Z,8.00
2023-03-07T15:37:56.866Z,6.35
2023-03-07T15:41:01.575Z,8.13
2023-03-07T15:44:19.695Z,8.87
2023-03-07T15:47:24.913Z,11.68
2023-03-07T15:50:30.531Z,10.00
2023-03-07T15:53:38.482Z,8.80
2023-03-07T15:56:42.485Z,6.35
2023-03-07T15:59:58.130Z,7.45
2023-03-07T16:03:28.481Z,10.43
2023-03-07T16:06:44.176Z,6.32
2023-03-07T16:09:51.323Z,8.38
2023-03-07T16:12:55.701Z,11.50
2023-03-07T16:16:26.827Z,5.28
2023-03-07T16:19:31.660Z,5.28
2023-03-07T16:22:36.530Z,6.63
2023-03-07T16:25:42.983Z,9.23
2023-03-07T16:29:05.980Z,4.55
2023-03-07T17:28:14.603Z,4.85
2023-03-07T17:31:20.108Z,5.40
2023-03-07T17:34:33.602Z,3.55
2023-03-07T17:37:37.797Z,4.15
2023-03-07T17:40:41.875Z,5.43
2023-03-07T17:43:46.061Z,5.55
2023-03-07T17:46:50.616Z,3.70
2023-03-07T17:49:54.478Z,4.60
2023-03-07T17:52:59.312Z,6.40
2023-03-07T17:56:12.496Z,6.60
2023-03-07T17:59:17.111Z,5.43
2023-03-07T18:02:21.204Z,7.22
2023-03-07T18:05:26.718Z,3.50
2023-03-07T18:08:30.959Z,5.03
2023-03-07T18:11:36.172Z,4.80
2023-03-07T18:14:40.607Z,5.90
2023-03-07T18:17:48.700Z,3.90
2023-03-07T18:21:03.621Z,4.07
2023-03-07T18:24:20.068Z,6.90
2023-03-07T18:27:25.760Z,3.75
2023-03-07T18:30:30.139Z,9.48
2023-03-07T18:33:35.589Z,14.38
2023-03-07T18:36:41.943Z,30.13
2023-03-07T18:39:46.180Z,15.88
2023-03-07T18:42:50.068Z,22.90
2023-03-07T18:45:53.922Z,7.15
2023-03-07T18:49:00.011Z,10.05
2023-03-07T18:55:08.977Z,11.02
2023-03-07T18:58:13.731Z,10.50
2023-03-07T19:01:38.589Z,17.08
2023-03-07T19:04:43.570Z,18.55
2023-03-07T19:07:49.041Z,10.48
2023-03-07T19:10:52.968Z,6.57
2023-03-07T19:13:57.799Z,8.70
2023-03-07T19:17:01.838Z,5.03
2023-03-07T19:20:06.491Z,7.13
2023-03-07T19:23:10.452Z,9.60
2023-03-07T19:26:19.455Z,6.47
2023-03-07T19:29:23.323Z,7.00
2023-03-07T19:32:30.119Z,17.45
2023-03-07T19:35:34.809Z,6.53
2023-03-07T19:38:39.985Z,19.60
2023-03-07T19:41:46.361Z,8.35
2023-03-07T19:44:50.252Z,7.03
2023-03-07T19:47:56.823Z,12.00
2023-03-07T19:51:01.610Z,11.85
2023-03-07T19:54:05.606Z,6.40
2023-03-07T19:57:12.428Z,4.85
2023-03-07T20:00:16.727Z,7.43
2023-03-07T20:03:21.429Z,5.65
2023-03-07T20:06:28.820Z,7.43
2023-03-07T20:09:35.864Z,5.22
2023-03-07T20:12:39.755Z,5.75
2023-03-07T20:15:54.724Z,10.75
2023-03-07T20:19:01.165Z,11.23
2023-03-07T20:22:06.116Z,8.52
2023-03-07T20:25:10.839Z,9.23
2023-03-07T20:31:20.906Z,4.70
2023-03-07T20:34:25.502Z,6.35
2023-03-07T20:41:06.824Z,5.93
2023-03-07T20:44:14.377Z,4.45
2023-03-07T20:47:18.713Z,4.47
2023-03-07T20:50:22.647Z,5.65
2023-03-07T20:53:27.120Z,5.47
2023-03-07T20:56:33.258Z,3.78
2023-03-07T20:59:37.536Z,5.38
2023-03-07T21:02:41.548Z,8.52
2023-03-07T21:05:45.680Z,4.25
2023-03-07T21:08:50.002Z,4.90
2023-03-07T21:11:54.046Z,4.30
2023-03-07T21:14:58.000Z,3.55
2023-03-07T21:18:02.048Z,4.95
2023-03-07T21:21:08.965Z,3.55
2023-03-07T21:24:13.707Z,5.93
2023-03-07T21:27:17.454Z,5.55
2023-03-07T21:30:21.524Z,5.43
2023-03-07T21:33:25.710Z,6.05
2023-03-07T21:36:32.213Z,10.07
2023-03-07T21:39:38.763Z,4.28
2023-03-07T21:42:43.312Z,5.40
2023-03-07T21:45:47.912Z,8.52
2023-03-07T21:48:52.904Z,6.10
2023-03-07T21:51:56.825Z,7.20
2023-03-07T21:55:01.004Z,4.60
2023-03-07T21:58:06.536Z,9.05
2023-03-07T22:01:23.107Z,10.32
2023-03-07T22:07:33.191Z,4.82
2023-03-07T22:10:37.432Z,8.32
2023-03-07T22:13:44.741Z,2.50
2023-03-07T22:16:48.690Z,6.60
2023-03-07T22:19:52.728Z,6.70
2023-03-07T22:22:56.831Z,4.65
2023-03-07T22:26:26.487Z,5.13
2023-03-07T22:29:30.951Z,4.65
2023-03-07T22:32:35.315Z,4.88
2023-03-07T22:35:42.114Z,4.95
2023-03-07T22:39:08.445Z,4.03
2023-03-07T22:42:13.249Z,4.10
2023-03-07T22:45:17.661Z,6.40
2023-03-07T22:48:21.748Z,4.22
2023-03-07T22:51:27.526Z,3.22
2023-03-07T22:54:32.027Z,5.22
2023-03-07T22:57:36.375Z,6.43
2023-03-07T23:00:42.352Z,5.28
2023-03-07T23:03:46.232Z,6.28
2023-03-07T23:06:50.248Z,3.72
2023-03-07T23:09:54.283Z,6.43
2023-03-07T23:12:58.328Z,4.85
2023-03-07T23:16:16.892Z,2.70
2023-03-07T23:19:20.998Z,5.07
2023-03-07T23:22:25.232Z,6.28
2023-03-07T23:25:29.508Z,3.10
2023-03-07T23:28:34.510Z,4.15
2023-03-07T23:31:40.967Z,3.75
2023-03-07T23:34:44.880Z,4.32
2023-03-07T23:37:49.169Z,3.97
2023-03-07T23:40:53.192Z,4.82
2023-03-07T23:44:00.122Z,22.27
2023-03-07T23:47:04.056Z,5.55
2023-03-07T23:50:09.764Z,3.83
2023-03-07T23:53:13.774Z,4.95
2023-03-07T23:56:17.653Z,3.97
2023-03-07T23:59:21.667Z,3.67
